Sibley, IA

2:05 PM CDT on May 29, 2015 (GMT -0500)
Spencer Municipal | | Change Station
CLOSE
Current Station
Airport
Location: Spencer,
Elevation: 1339 ft
Nearby Weather Stations

Elev 1339 ft 43.17 °N, 95.20 °W | Updated 12 minutes ago

Overcast
Overcast
72 °F
Feels Like 72 °F
N
12
Wind Variable Wind from WSW

Today
High -- | Low -- °F
--% Chance of Precip.
Yesterday
High -- | Low -- °F
Precip. -- in
5:47 AM 8:54 PM
Waxing Gibbous, 85% visible
Pressure 29.88 in
Visibility 10.0 miles
Clouds Few 2200 ft
Overcast 3100 ft
Dew Point 63 °F
Humidity 73%
Rainfall 0.11 in
Snow Depth Not available.
UV 3 out of 12
Pollen 1.50 out of 12
Air Quality Not available.
Flu Activity Sporadic
METAR KSPW 291853Z AUTO 25010KT 10SM FEW022 OVC031 22/17 A2990 RMK AO2 SLP118 T02220172 TSNO

More Conditions Fewer Conditions

Pressure 29.88 in
Visibility 10.0 miles
Clouds Few 2200 ft
Overcast 3100 ft
Dew Point 63 °F
Humidity 73%
Rainfall 0.11 in
Snow Depth Not available.
UV 3 out of 12
Pollen 1.50 out of 12
Air Quality Not available.
Flu Activity Sporadic
METAR KSPW 291853Z AUTO 25010KT 10SM FEW022 OVC031 22/17 A2990 RMK AO2 SLP118 T02220172 TSNO

More Conditions Fewer Conditions

10-Day Weather Forecast

Almanac

Astronomy

May. 29, 2015 Rise Set
Actual Time
Civil Twilight
Nautical Twilight
Astronomical Twilight
Moon
Length of Visible Light
Length of Day
Tomorrow will be .
, % of the Moon is Illuminated

Today's Extremes

State Highs State Lows

Community

WunderPhotos

Upload Photos

1,825,325 photos uploaded!

WunderBlogs® & News

Nearby

Air Quality

  Air Quality AQ Index Pollutant
Not available.

Snow Depth

Station Depth Elevation

Earthquake Activity

City Distance Mag. Time & Date
Minimum magnitude displayed is 2.5.

Coastal Water Temperatures

Place Temperature

Stations

Nearby Weather Stations

Station Location Temp. Windchill Dew Point Humidity Wind Precip. Elev Updated Type